Time;durP1;ratioP1;P1;durP2;ratioP2;P2;SDS_P1;SDS_P2;PMS_P1;PMS_P2;Temp;Humidity;BMP_temperature;BMP_pressure;BME280_temperature;BME280_humidity;BME280_pressure;Samples;Min_cycle;Max_cycle;Signal;HPM_P1;HPM_P2
2023/10/28 00:00:59;;;;;;;27.25;12.77;;;10.10;99.90;;;;;;5077118;28;20044;-79
2023/10/28 00:03:25;;;;;;;27.27;11.68;;;10.10;99.90;;;;;;5077078;28;20391;-78
2023/10/28 00:05:51;;;;;;;30.30;12.98;;;10.10;99.90;;;;;;5095011;28;20040;-78
2023/10/28 00:08:17;;;;;;;28.08;13.32;;;10.10;99.90;;;;;;5076923;28;20443;-78
2023/10/28 00:10:44;;;;;;;27.48;12.75;;;10.10;99.90;;;;;;5076915;28;20099;-78
2023/10/28 00:13:12;;;;;;;30.25;13.30;;;10.10;99.90;;;;;;5094989;28;20032;-78
2023/10/28 00:15:38;;;;;;;31.55;12.25;;;10.10;99.90;;;;;;5094902;28;20101;-78
2023/10/28 00:18:04;;;;;;;34.40;14.95;;;10.10;99.90;;;;;;5076759;28;20132;-78
2023/10/28 00:20:30;;;;;;;30.15;12.60;;;10.10;99.90;;;;;;5076569;28;20127;-78
2023/10/28 00:22:57;;;;;;;29.40;11.80;;;10.10;99.90;;;;;;5076658;28;20051;-78
2023/10/28 00:25:27;;;;;;;30.42;13.20;;;10.10;99.90;;;;;;5076588;28;20126;-79
2023/10/28 00:27:56;;;;;;;27.27;13.90;;;10.10;99.90;;;;;;5076605;28;20052;-79
2023/10/28 00:30:22;;;;;;;28.67;12.32;;;10.10;99.90;;;;;;5076292;28;20093;-78
2023/10/28 00:32:49;;;;;;;30.98;13.68;;;10.10;99.90;;;;;;5076291;28;20066;-78
2023/10/28 00:35:15;;;;;;;26.60;12.30;;;10.10;99.90;;;;;;5076368;28;20384;-78
2023/10/28 00:37:42;;;;;;;29.35;13.45;;;10.10;99.90;;;;;;5076107;28;20052;-78
2023/10/28 00:40:08;;;;;;;30.60;13.38;;;10.10;99.90;;;;;;5076293;28;20052;-78
2023/10/28 00:42:35;;;;;;;30.63;13.40;;;10.10;99.90;;;;;;5076032;28;20043;-78
2023/10/28 00:45:06;;;;;;;27.60;13.48;;;10.10;99.90;;;;;;5076114;28;20040;-78
2023/10/28 00:47:38;;;;;;;31.02;13.63;;;10.10;99.90;;;;;;5076163;28;20040;-78
2023/10/28 00:50:10;;;;;;;29.08;13.07;;;10.10;99.90;;;;;;5076202;28;20125;-78
2023/10/28 00:52:42;;;;;;;31.83;13.70;;;10.10;99.90;;;;;;5076111;28;20177;-78
2023/10/28 00:55:10;;;;;;;30.85;13.70;;;10.10;99.90;;;;;;5094386;28;20040;-78
2023/10/28 00:57:37;;;;;;;34.70;16.02;;;10.10;99.90;;;;;;5059601;28;20044;-78
2023/10/28 01:00:06;;;;;;;32.85;14.70;;;10.10;99.90;;;;;;5075947;28;20486;-79
2023/10/28 01:02:34;;;;;;;34.83;14.88;;;10.10;99.90;;;;;;5076026;28;20040;-79
2023/10/28 01:05:03;;;;;;;33.15;14.57;;;10.10;99.90;;;;;;5075901;28;20404;-79
2023/10/28 01:07:31;;;;;;;40.28;17.33;;;10.10;99.90;;;;;;5076020;28;20036;-78
2023/10/28 01:09:57;;;;;;;32.42;15.68;;;10.10;99.90;;;;;;5075644;28;20118;-79
2023/10/28 01:12:23;;;;;;;35.25;15.13;;;10.10;99.90;;;;;;5076015;28;20090;-79
2023/10/28 01:14:50;;;;;;;35.90;17.30;;;10.10;99.90;;;;;;5075673;28;20399;-78
2023/10/28 01:17:16;;;;;;;35.28;15.05;;;10.10;99.90;;;;;;5075745;28;20040;-78
2023/10/28 01:19:42;;;;;;;39.85;16.40;;;10.10;99.90;;;;;;5075473;28;20083;-78
2023/10/28 01:22:08;;;;;;;40.60;17.38;;;10.10;99.90;;;;;;5075546;28;20083;-79
2023/10/28 01:24:35;;;;;;;38.80;17.20;;;10.10;99.90;;;;;;5075830;28;20067;-79
2023/10/28 01:27:01;;;;;;;43.10;17.30;;;10.10;99.90;;;;;;5075719;28;20043;-79
2023/10/28 01:29:28;;;;;;;43.25;18.20;;;10.10;99.90;;;;;;5093674;28;20086;-78
2023/10/28 01:31:54;;;;;;;37.17;16.17;;;10.10;99.90;;;;;;5075931;28;20040;-78
2023/10/28 01:34:21;;;;;;;36.75;17.20;;;10.10;99.90;;;;;;5093486;28;20048;-79
2023/10/28 01:36:48;;;;;;;38.65;17.08;;;10.10;99.90;;;;;;5093457;28;20060;-78
2023/10/28 01:39:15;;;;;;;39.70;17.63;;;10.10;99.90;;;;;;5095101;28;20047;-79
2023/10/28 01:41:41;;;;;;;44.22;18.10;;;10.20;99.90;;;;;;5079627;28;20040;-78
2023/10/28 01:44:07;;;;;;;40.92;17.88;;;10.10;99.90;;;;;;5079576;28;20127;-78
2023/10/28 01:46:33;;;;;;;42.88;18.60;;;10.10;99.90;;;;;;5079682;28;20136;-78
2023/10/28 01:48:58;;;;;;;47.50;19.90;;;10.20;99.90;;;;;;5097638;28;20028;-78
2023/10/28 01:51:24;;;;;;;47.25;20.73;;;10.20;99.90;;;;;;5079441;28;20448;-78
2023/10/28 01:53:50;;;;;;;43.42;19.35;;;10.20;99.90;;;;;;5079408;28;20047;-78
2023/10/28 01:56:16;;;;;;;50.47;20.95;;;10.20;99.90;;;;;;5097639;28;20094;-78
2023/10/28 01:58:41;;;;;;;49.88;22.08;;;10.20;99.90;;;;;;5079564;28;20487;-78
2023/10/28 02:01:07;;;;;;;44.38;20.70;;;10.20;99.90;;;;;;5097540;28;20387;-78
2023/10/28 02:03:33;;;;;;;49.08;21.55;;;10.20;99.90;;;;;;5079342;28;20069;-78
2023/10/28 02:05:59;;;;;;;51.63;21.95;;;10.20;99.90;;;;;;5079299;28;20507;-78
2023/10/28 02:08:24;;;;;;;47.40;20.75;;;10.20;99.90;;;;;;5079076;28;20044;-78
2023/10/28 02:10:50;;;;;;;51.83;22.73;;;10.20;99.90;;;;;;5079102;28;20052;-78
2023/10/28 02:13:16;;;;;;;50.03;21.67;;;10.20;99.90;;;;;;5079501;28;20133;-78
2023/10/28 02:15:42;;;;;;;47.17;20.77;;;10.20;99.90;;;;;;5097266;28;20048;-78
2023/10/28 02:18:09;;;;;;;55.75;21.95;;;10.20;99.90;;;;;;5079225;28;20048;-78
2023/10/28 02:20:36;;;;;;;52.83;23.30;;;10.20;99.90;;;;;;5078827;28;20121;-78
2023/10/28 02:23:02;;;;;;;58.03;24.02;;;10.20;99.90;;;;;;5079100;28;20054;-78
2023/10/28 02:25:27;;;;;;;57.13;24.27;;;10.20;99.90;;;;;;5078824;28;20044;-78
2023/10/28 02:27:53;;;;;;;59.65;26.65;;;10.30;99.90;;;;;;5079148;28;20047;-78
2023/10/28 02:30:19;;;;;;;61.85;27.70;;;10.20;99.90;;;;;;5078705;28;20070;-78
2023/10/28 02:32:44;;;;;;;66.88;29.20;;;10.20;99.90;;;;;;5078959;28;20083;-78
2023/10/28 02:35:10;;;;;;;59.33;27.33;;;10.10;99.90;;;;;;5078861;28;20394;-78
2023/10/28 02:37:36;;;;;;;67.82;29.13;;;10.10;99.90;;;;;;5096585;28;20048;-78
2023/10/28 02:40:03;;;;;;;64.93;27.48;;;10.10;99.90;;;;;;5078555;28;20131;-78
2023/10/28 02:42:29;;;;;;;64.28;27.60;;;10.10;99.90;;;;;;5078675;28;20043;-78
2023/10/28 02:44:55;;;;;;;59.33;26.73;;;10.10;99.90;;;;;;5078835;28;20126;-78
2023/10/28 02:47:20;;;;;;;59.72;27.52;;;10.00;99.90;;;;;;5078708;28;20498;-78
2023/10/28 02:49:46;;;;;;;65.35;27.88;;;10.00;99.90;;;;;;5077750;28;20044;-78
2023/10/28 02:52:12;;;;;;;63.78;28.27;;;10.00;99.90;;;;;;5077394;28;20048;-79
2023/10/28 02:54:38;;;;;;;65.40;28.45;;;10.00;99.90;;;;;;5078208;28;20118;-79
2023/10/28 02:57:03;;;;;;;62.78;30.17;;;9.90;99.90;;;;;;5078350;28;20137;-78
2023/10/28 02:59:29;;;;;;;60.30;28.13;;;9.90;99.90;;;;;;5096353;28;20064;-78
2023/10/28 03:01:55;;;;;;;71.57;29.17;;;9.90;99.90;;;;;;5078184;28;20044;-78
2023/10/28 03:04:21;;;;;;;59.75;28.77;;;9.90;99.90;;;;;;5078005;28;20040;-78
2023/10/28 03:06:47;;;;;;;63.63;28.08;;;9.90;99.90;;;;;;5078005;28;20105;-78
2023/10/28 03:09:13;;;;;;;64.93;28.40;;;9.90;99.90;;;;;;5096334;28;20048;-78
2023/10/28 03:11:38;;;;;;;78.35;29.42;;;9.90;99.90;;;;;;5078131;28;20052;-78
2023/10/28 03:14:07;;;;;;;68.53;28.25;;;9.90;99.90;;;;;;5096146;28;20067;-76
2023/10/28 03:16:32;;;;;;;64.45;27.73;;;9.90;99.90;;;;;;5096022;28;20082;-76
2023/10/28 03:18:58;;;;;;;66.03;28.88;;;9.90;99.90;;;;;;5095834;28;20418;-76
2023/10/28 03:21:24;;;;;;;60.17;27.60;;;9.90;99.90;;;;;;5077905;28;20052;-75
2023/10/28 03:23:50;;;;;;;67.55;27.70;;;9.90;99.90;;;;;;5096109;28;20051;-75
2023/10/28 03:26:15;;;;;;;61.22;27.90;;;9.90;99.90;;;;;;5095929;28;20039;-76
2023/10/28 03:28:41;;;;;;;61.47;26.10;;;9.90;99.90;;;;;;5077919;28;20055;-76
2023/10/28 03:31:11;;;;;;;62.67;26.90;;;9.80;99.90;;;;;;5077712;28;20393;-76
2023/10/28 03:33:38;;;;;;;64.10;27.33;;;9.90;99.90;;;;;;5095756;28;20088;-77
2023/10/28 03:36:09;;;;;;;61.70;27.35;;;9.80;99.90;;;;;;5077237;28;20071;-78
2023/10/28 03:38:35;;;;;;;58.65;25.58;;;9.80;99.90;;;;;;5077460;28;20074;-78
2023/10/28 03:41:11;;;;;;;60.60;27.23;;;9.80;99.90;;;;;;5077507;28;20085;-78
2023/10/28 03:43:38;;;;;;;64.80;26.83;;;9.80;99.90;;;;;;5077408;28;20534;-78
2023/10/28 03:46:04;;;;;;;60.10;24.75;;;9.80;99.90;;;;;;5077434;28;20487;-78
2023/10/28 03:48:30;;;;;;;55.42;25.17;;;9.70;99.90;;;;;;5077278;28;20044;-78
2023/10/28 03:51:01;;;;;;;62.60;26.42;;;9.70;99.90;;;;;;5077032;28;20056;-78
2023/10/28 03:53:28;;;;;;;56.70;23.63;;;9.70;99.90;;;;;;5095454;28;20040;-79
2023/10/28 03:55:53;;;;;;;52.90;23.30;;;9.70;99.90;;;;;;5077237;28;20126;-79
2023/10/28 03:58:19;;;;;;;57.00;24.35;;;9.60;99.90;;;;;;5077491;28;20066;-79
2023/10/28 04:00:45;;;;;;;58.65;24.23;;;9.60;99.90;;;;;;5076822;28;20040;-79
2023/10/28 04:03:12;;;;;;;58.45;24.20;;;9.60;99.90;;;;;;5076499;28;20427;-79
2023/10/28 04:05:38;;;;;;;54.72;23.98;;;9.60;99.90;;;;;;5077282;28;20036;-78
2023/10/28 04:08:04;;;;;;;56.92;25.17;;;9.60;99.90;;;;;;5076958;28;20117;-79
2023/10/28 04:10:30;;;;;;;55.20;24.17;;;9.50;99.90;;;;;;5076846;28;20059;-79
2023/10/28 04:12:55;;;;;;;56.35;23.95;;;9.60;99.90;;;;;;5095068;28;20032;-78
2023/10/28 04:15:22;;;;;;;61.50;24.58;;;9.50;99.90;;;;;;5076648;28;20399;-78
2023/10/28 04:17:48;;;;;;;53.38;23.55;;;9.50;99.90;;;;;;5094998;28;20085;-79
2023/10/28 04:20:14;;;;;;;56.88;24.20;;;9.40;99.90;;;;;;5076961;28;20044;-79
2023/10/28 04:22:39;;;;;;;52.42;22.75;;;9.40;99.90;;;;;;5076915;28;20109;-79
2023/10/28 04:25:06;;;;;;;53.55;22.42;;;9.40;99.90;;;;;;5094773;28;20433;-79
2023/10/28 04:27:32;;;;;;;54.17;21.95;;;9.40;99.90;;;;;;5076679;28;20039;-79
2023/10/28 04:29:58;;;;;;;59.42;21.77;;;9.40;99.90;;;;;;5094697;28;20044;-79
2023/10/28 04:32:24;;;;;;;54.65;23.02;;;9.30;99.90;;;;;;5076641;28;20093;-79
2023/10/28 04:34:52;;;;;;;46.58;21.65;;;9.30;99.90;;;;;;5076397;28;20044;-79
2023/10/28 04:37:20;;;;;;;51.80;20.70;;;9.20;99.90;;;;;;5076132;28;20047;-79
2023/10/28 04:39:45;;;;;;;51.08;22.02;;;9.20;99.90;;;;;;5076524;28;20047;-79
2023/10/28 04:42:11;;;;;;;46.72;22.00;;;9.20;99.90;;;;;;5076312;28;20445;-79
2023/10/28 04:44:37;;;;;;;52.65;22.63;;;9.20;99.90;;;;;;5076109;28;20040;-79
2023/10/28 04:47:03;;;;;;;41.30;19.42;;;9.20;99.90;;;;;;5076441;28;20055;-79
2023/10/28 04:49:29;;;;;;;47.10;20.80;;;9.20;99.90;;;;;;5094142;28;20087;-79
2023/10/28 04:51:55;;;;;;;49.20;21.20;;;9.20;99.90;;;;;;5094296;28;20154;-79
2023/10/28 04:54:21;;;;;;;53.03;23.45;;;9.20;99.90;;;;;;5076262;28;20055;-79
2023/10/28 04:56:48;;;;;;;51.30;20.83;;;9.20;99.90;;;;;;5076188;28;20078;-78
2023/10/28 04:59:15;;;;;;;51.47;21.83;;;9.10;99.90;;;;;;5076214;28;20138;-78
2023/10/28 05:01:41;;;;;;;56.25;21.73;;;9.10;99.90;;;;;;5076148;28;20048;-79
2023/10/28 05:04:10;;;;;;;44.78;20.90;;;9.10;99.90;;;;;;5076204;28;20097;-79
2023/10/28 05:06:36;;;;;;;48.42;21.02;;;9.10;99.90;;;;;;5093782;28;20056;-78
2023/10/28 05:09:02;;;;;;;44.65;20.08;;;9.10;99.90;;;;;;5075859;28;20584;-79
2023/10/28 05:11:28;;;;;;;46.90;21.65;;;9.10;99.90;;;;;;5093813;28;20495;-78
2023/10/28 05:13:53;;;;;;;51.53;22.77;;;9.10;99.90;;;;;;5074989;28;20087;-79
2023/10/28 05:16:19;;;;;;;53.25;22.60;;;9.10;99.90;;;;;;5075840;28;20047;-79
2023/10/28 05:18:45;;;;;;;46.22;20.77;;;9.10;99.90;;;;;;5075759;28;20139;-79
2023/10/28 05:21:11;;;;;;;57.35;22.50;;;9.10;99.90;;;;;;5075792;28;20119;-78
2023/10/28 05:23:38;;;;;;;57.92;24.08;;;9.10;99.90;;;;;;5076010;28;20043;-78
2023/10/28 05:26:04;;;;;;;52.97;21.63;;;9.10;99.90;;;;;;5075606;28;20046;-78
2023/10/28 05:28:31;;;;;;;55.95;24.88;;;9.10;99.90;;;;;;5075796;28;20132;-78
2023/10/28 05:30:57;;;;;;;58.55;24.42;;;9.10;99.90;;;;;;5075590;28;20044;-78
2023/10/28 05:33:22;;;;;;;55.45;24.02;;;9.10;99.90;;;;;;5093697;28;20036;-78
2023/10/28 05:35:51;;;;;;;60.15;23.15;;;9.10;99.90;;;;;;5075235;28;20483;-79
2023/10/28 05:38:17;;;;;;;65.05;24.38;;;9.20;99.90;;;;;;5075345;28;20044;-77
2023/10/28 05:40:43;;;;;;;54.42;24.88;;;9.20;99.90;;;;;;5075419;28;20047;-78
2023/10/28 05:43:09;;;;;;;63.03;26.48;;;9.20;99.90;;;;;;5080226;28;20053;-78
2023/10/28 05:45:34;;;;;;;61.30;24.00;;;9.20;99.90;;;;;;5073489;28;20040;-78
2023/10/28 05:48:00;;;;;;;59.13;23.55;;;9.20;99.90;;;;;;5055454;28;20080;-78
2023/10/28 05:50:27;;;;;;;84.20;27.08;;;9.20;99.90;;;;;;5055413;28;20186;-78
2023/10/28 05:52:54;;;;;;;71.22;26.08;;;9.30;99.90;;;;;;5055481;28;20059;-77
2023/10/28 05:55:19;;;;;;;69.20;25.45;;;9.20;99.90;;;;;;5055219;28;20162;-78
2023/10/28 05:57:45;;;;;;;71.75;26.50;;;9.30;99.90;;;;;;5055131;28;20127;-78
2023/10/28 06:00:11;;;;;;;71.63;26.50;;;9.30;99.90;;;;;;5055681;28;20044;-78
2023/10/28 06:02:38;;;;;;;84.10;28.63;;;9.20;99.90;;;;;;5073417;28;20124;-78
2023/10/28 06:05:04;;;;;;;82.60;26.00;;;9.20;99.90;;;;;;5038696;28;20044;-78
2023/10/28 06:07:33;;;;;;;75.90;26.67;;;9.20;99.90;;;;;;5055372;28;20044;-78
2023/10/28 06:09:59;;;;;;;64.55;25.42;;;9.30;99.90;;;;;;5055226;28;20044;-78
2023/10/28 06:12:27;;;;;;;69.60;26.23;;;9.30;99.90;;;;;;5055169;28;20053;-78
2023/10/28 06:14:53;;;;;;;64.90;26.10;;;9.30;99.90;;;;;;5055090;28;20053;-78
2023/10/28 06:17:20;;;;;;;72.05;27.50;;;9.30;99.90;;;;;;5055209;28;20055;-78
2023/10/28 06:19:46;;;;;;;66.53;25.70;;;9.30;99.90;;;;;;5055383;28;20040;-78
2023/10/28 06:22:12;;;;;;;64.10;25.42;;;9.30;99.90;;;;;;5055188;28;20515;-78
2023/10/28 06:24:38;;;;;;;67.97;27.08;;;9.30;99.90;;;;;;5055264;28;20042;-78
2023/10/28 06:27:05;;;;;;;65.18;26.10;;;9.40;99.90;;;;;;5058831;28;20055;-78
2023/10/28 06:29:31;;;;;;;66.78;25.65;;;9.40;99.90;;;;;;5058469;28;20501;-78
2023/10/28 06:32:00;;;;;;;60.67;24.98;;;9.40;99.90;;;;;;5076136;28;20379;-78
2023/10/28 06:34:28;;;;;;;69.25;25.67;;;9.40;99.90;;;;;;5057210;28;20541;-78
2023/10/28 06:36:55;;;;;;;66.70;26.95;;;9.40;99.90;;;;;;5058204;28;20052;-79
2023/10/28 06:39:23;;;;;;;68.68;26.00;;;9.40;99.90;;;;;;5058421;28;20054;-78
2023/10/28 06:41:49;;;;;;;68.95;24.65;;;9.50;99.90;;;;;;5076481;28;20507;-78
2023/10/28 06:44:15;;;;;;;62.58;23.52;;;9.50;99.90;;;;;;5076245;28;20052;-78
2023/10/28 06:46:41;;;;;;;63.88;24.67;;;9.40;99.90;;;;;;5076381;28;20082;-78
2023/10/28 06:49:08;;;;;;;63.05;25.52;;;9.50;99.90;;;;;;5058395;28;20040;-78
2023/10/28 06:51:34;;;;;;;63.08;25.85;;;9.50;99.90;;;;;;5058000;28;20052;-79
2023/10/28 06:54:00;;;;;;;73.80;26.40;;;9.50;99.90;;;;;;5076003;28;20056;-79
2023/10/28 06:56:25;;;;;;;65.20;24.95;;;9.50;99.90;;;;;;5058021;28;20060;-78
2023/10/28 06:58:51;;;;;;;58.90;23.63;;;9.50;99.90;;;;;;5057998;28;20048;-78
2023/10/28 07:01:18;;;;;;;57.25;23.58;;;9.50;99.90;;;;;;5058176;28;20056;-78
2023/10/28 07:03:45;;;;;;;50.47;23.20;;;9.50;99.90;;;;;;5057795;28;20080;-78
2023/10/28 07:06:14;;;;;;;63.08;24.90;;;9.50;99.90;;;;;;5075817;28;20044;-77
2023/10/28 07:08:41;;;;;;;48.58;22.13;;;9.50;99.90;;;;;;5067570;28;20049;-76
2023/10/28 07:11:06;;;;;;;56.17;23.30;;;9.50;99.90;;;;;;5057626;28;20052;-76
2023/10/28 07:13:32;;;;;;;60.92;23.92;;;9.60;99.90;;;;;;5057475;28;20048;-76
2023/10/28 07:16:02;;;;;;;54.78;24.00;;;9.60;99.90;;;;;;5057468;28;20079;-76
2023/10/28 07:18:29;;;;;;;63.25;23.80;;;9.60;99.90;;;;;;5057479;28;20048;-76
2023/10/28 07:20:56;;;;;;;55.63;23.95;;;9.70;99.90;;;;;;5057512;28;20052;-77
2023/10/28 07:23:21;;;;;;;57.13;23.88;;;9.70;99.90;;;;;;5057583;28;20511;-76
2023/10/28 07:25:47;;;;;;;57.08;23.83;;;9.70;99.90;;;;;;5057241;28;20056;-76
2023/10/28 07:28:14;;;;;;;46.75;21.45;;;9.70;99.90;;;;;;5057508;28;20052;-76
2023/10/28 07:30:50;;;;;;;45.08;19.98;;;9.70;99.90;;;;;;5075059;28;20099;-77
2023/10/28 07:33:20;;;;;;;50.40;21.55;;;9.80;99.90;;;;;;5057345;28;20049;-77
2023/10/28 07:35:50;;;;;;;50.45;20.35;;;9.80;99.90;;;;;;5057319;28;20087;-76
2023/10/28 07:38:19;;;;;;;42.20;19.73;;;9.80;99.90;;;;;;5074459;28;20048;-77
2023/10/28 07:40:45;;;;;;;50.05;19.42;;;9.90;99.90;;;;;;5057000;28;20052;-77
2023/10/28 07:43:12;;;;;;;43.63;17.73;;;9.90;99.90;;;;;;5040278;28;20072;-78
2023/10/28 07:45:42;;;;;;;41.75;17.98;;;9.90;99.90;;;;;;5056906;28;20055;-78
2023/10/28 07:48:09;;;;;;;40.75;19.02;;;10.00;99.90;;;;;;5056923;28;20474;-78
2023/10/28 07:50:38;;;;;;;46.30;20.00;;;10.00;99.90;;;;;;5056664;28;20053;-78
2023/10/28 07:53:07;;;;;;;39.05;17.80;;;10.00;99.90;;;;;;5074750;28;20040;-78
2023/10/28 07:55:33;;;;;;;43.03;17.02;;;10.10;99.90;;;;;;5056894;28;20045;-78
2023/10/28 07:57:59;;;;;;;40.05;16.70;;;10.20;99.90;;;;;;5056695;28;20079;-77
2023/10/28 08:00:26;;;;;;;42.05;18.00;;;10.20;99.90;;;;;;5056624;28;20068;-78
2023/10/28 08:02:52;;;;;;;31.25;16.38;;;10.20;99.90;;;;;;5056674;28;20055;-78
2023/10/28 08:05:18;;;;;;;32.45;14.85;;;10.20;99.90;;;;;;5056841;28;20504;-77
2023/10/28 08:07:46;;;;;;;33.70;15.70;;;10.20;99.90;;;;;;5056826;28;20049;-77
2023/10/28 08:10:12;;;;;;;30.30;14.55;;;10.30;99.90;;;;;;5074222;28;20594;-77
2023/10/28 08:12:39;;;;;;;33.05;14.75;;;10.20;99.90;;;;;;5056516;28;20120;-79
2023/10/28 08:15:07;;;;;;;27.10;12.70;;;10.30;99.90;;;;;;5056616;28;20400;-78
2023/10/28 08:17:34;;;;;;;29.98;14.55;;;10.30;99.90;;;;;;5074461;28;20076;-77
2023/10/28 08:20:00;;;;;;;22.73;12.80;;;10.30;99.90;;;;;;5056467;28;20045;-76
2023/10/28 08:22:26;;;;;;;28.65;13.13;;;10.40;99.90;;;;;;5056367;28;20441;-76
2023/10/28 08:24:52;;;;;;;25.95;12.70;;;10.40;99.90;;;;;;5056443;28;20131;-76
2023/10/28 08:27:18;;;;;;;22.73;11.43;;;10.40;99.90;;;;;;5074420;28;20050;-77
2023/10/28 08:29:43;;;;;;;31.67;12.82;;;10.60;99.90;;;;;;5055868;28;20040;-77
2023/10/28 08:32:09;;;;;;;22.98;11.68;;;10.50;99.90;;;;;;5056082;28;20186;-77
2023/10/28 08:34:35;;;;;;;23.33;11.73;;;10.60;99.90;;;;;;5055935;28;20416;-77
2023/10/28 08:37:03;;;;;;;28.60;12.60;;;10.70;99.90;;;;;;5055814;28;20781;-77
2023/10/28 08:39:31;;;;;;;29.02;11.75;;;10.80;99.90;;;;;;5056053;28;20066;-77
2023/10/28 08:42:02;;;;;;;28.52;12.13;;;10.80;99.90;;;;;;5056094;28;20048;-77
2023/10/28 08:44:28;;;;;;;23.27;10.98;;;10.80;99.90;;;;;;5073854;28;20048;-77
2023/10/28 08:46:54;;;;;;;20.92;10.43;;;10.80;99.90;;;;;;5056121;28;20049;-77
2023/10/28 08:49:21;;;;;;;22.05;10.90;;;10.70;99.90;;;;;;5055950;28;20510;-77
2023/10/28 08:51:53;;;;;;;21.05;10.27;;;10.80;99.90;;;;;;5055857;28;20049;-77
2023/10/28 08:54:19;;;;;;;19.13;9.55;;;10.80;99.90;;;;;;5073792;28;20148;-77
2023/10/28 08:56:47;;;;;;;19.05;9.80;;;10.80;99.90;;;;;;5055768;28;20496;-77
2023/10/28 08:59:14;;;;;;;17.17;8.82;;;10.80;99.90;;;;;;5055818;28;20044;-77
2023/10/28 09:01:40;;;;;;;17.80;9.13;;;10.90;99.90;;;;;;5055793;28;20048;-77
2023/10/28 09:04:05;;;;;;;21.65;9.25;;;11.00;99.90;;;;;;5055422;28;20105;-77
2023/10/28 09:06:32;;;;;;;17.33;8.50;;;11.00;99.90;;;;;;5055349;28;20051;-77
2023/10/28 09:08:59;;;;;;;20.67;8.75;;;11.10;99.90;;;;;;5055582;28;20373;-77
2023/10/28 09:11:25;;;;;;;17.20;8.27;;;11.10;99.90;;;;;;5055411;28;20078;-77
2023/10/28 09:13:51;;;;;;;15.70;8.20;;;11.20;99.90;;;;;;5055392;28;20075;-77
2023/10/28 09:16:17;;;;;;;17.25;8.55;;;11.30;99.90;;;;;;5055351;28;20139;-77
2023/10/28 09:18:44;;;;;;;17.23;8.77;;;11.30;99.90;;;;;;5055312;28;20135;-77
2023/10/28 09:21:11;;;;;;;14.43;7.40;;;11.20;99.90;;;;;;5055297;28;20052;-77
2023/10/28 09:23:37;;;;;;;15.55;7.97;;;11.30;99.90;;;;;;5073506;28;20048;-77
2023/10/28 09:26:04;;;;;;;15.02;7.40;;;11.30;99.90;;;;;;5055304;28;20040;-77
2023/10/28 09:28:34;;;;;;;18.30;8.07;;;11.20;99.90;;;;;;5055202;28;20052;-77
2023/10/28 09:30:59;;;;;;;15.98;7.00;;;11.20;99.90;;;;;;5055110;28;20076;-77
2023/10/28 09:33:30;;;;;;;14.32;7.07;;;11.20;99.90;;;;;;5055394;28;20117;-77
2023/10/28 09:35:56;;;;;;;14.32;6.60;;;11.20;99.90;;;;;;5055258;28;20514;-78
2023/10/28 09:38:23;;;;;;;13.48;6.70;;;11.20;99.90;;;;;;5073288;28;20055;-77
2023/10/28 09:40:49;;;;;;;14.43;7.85;;;11.20;99.90;;;;;;5055398;28;20044;-77
2023/10/28 09:43:15;;;;;;;14.57;8.40;;;11.20;99.90;;;;;;5055263;28;20051;-77
2023/10/28 09:45:49;;;;;;;15.23;8.57;;;11.20;99.90;;;;;;5055105;28;20045;-77
2023/10/28 09:48:17;;;;;;;25.35;8.23;;;11.20;99.90;;;;;;5054965;28;20127;-77
2023/10/28 09:50:50;;;;;;;13.32;7.53;;;11.20;99.90;;;;;;5054958;28;20434;-77
2023/10/28 09:53:29;;;;;;;15.00;7.53;;;11.30;99.90;;;;;;5055186;28;20045;-76
2023/10/28 09:55:56;;;;;;;14.93;8.10;;;11.20;99.90;;;;;;5055052;28;20044;-77
2023/10/28 09:58:28;;;;;;;14.38;7.30;;;11.20;99.90;;;;;;5055112;28;20041;-77
2023/10/28 10:01:07;;;;;;;13.50;7.20;;;11.30;99.90;;;;;;5063233;28;20394;-77
2023/10/28 10:03:54;;;;;;;15.20;7.47;;;11.30;99.90;;;;;;5085103;28;20044;-77
2023/10/28 10:06:21;;;;;;;14.38;7.18;;;11.30;99.90;;;;;;5045967;28;20048;-79
2023/10/28 10:08:51;;;;;;;13.98;7.22;;;11.30;99.90;;;;;;5073827;28;20063;-81
2023/10/28 10:11:24;;;;;;;17.40;6.88;;;11.30;99.90;;;;;;5078854;28;20048;-77
2023/10/28 10:13:49;;;;;;;;;;;11.30;99.90;;;;;;5079030;28;20493;-76
2023/10/28 10:16:38;;;;;;;13.43;7.13;;;11.30;99.90;;;;;;5072834;28;19986;-79
2023/10/28 10:19:12;;;;;;;15.68;6.93;;;11.20;99.90;;;;;;5066730;28;20052;-77
2023/10/28 10:21:38;;;;;;;20.15;7.78;;;11.30;99.90;;;;;;5077450;28;20055;-77
2023/10/28 10:24:05;;;;;;;14.15;8.13;;;11.30;99.90;;;;;;5069022;28;20044;-77
2023/10/28 10:26:33;;;;;;;14.80;7.47;;;11.20;99.90;;;;;;5068444;28;20048;-77
2023/10/28 10:29:00;;;;;;;14.05;7.55;;;11.30;99.90;;;;;;5096594;28;20492;-77
2023/10/28 10:31:33;;;;;;;13.68;7.47;;;11.20;99.90;;;;;;5053267;28;20048;-79
2023/10/28 10:34:06;;;;;;;13.73;6.72;;;11.30;99.90;;;;;;5070540;28;20047;-77
2023/10/28 10:36:38;;;;;;;14.18;6.93;;;11.20;99.90;;;;;;5047913;28;20134;-76
2023/10/28 10:39:20;;;;;;;13.73;6.95;;;11.30;99.90;;;;;;5089517;28;20142;-76
2023/10/28 10:41:53;;;;;;;17.97;8.60;;;11.20;99.90;;;;;;5064033;28;20501;-76
2023/10/28 10:44:33;;;;;;;12.13;6.85;;;11.20;99.90;;;;;;5074591;28;20387;-76
2023/10/28 10:47:00;;;;;;;14.15;7.75;;;11.20;99.90;;;;;;5067410;28;20039;-76
2023/10/28 10:49:26;;;;;;;17.98;7.28;;;11.20;99.90;;;;;;5058516;28;20058;-76
2023/10/28 10:51:52;;;;;;;16.48;7.03;;;11.20;99.90;;;;;;5068122;28;20055;-77
2023/10/28 10:54:19;;;;;;;15.93;6.25;;;11.20;99.90;;;;;;5074850;28;20098;-78
2023/10/28 10:56:45;;;;;;;10.60;7.05;;;11.20;99.90;;;;;;5074565;28;20094;-78
2023/10/28 10:59:11;;;;;;;14.65;7.22;;;11.30;99.90;;;;;;5076100;28;20047;-77
2023/10/28 11:01:40;;;;;;;12.68;7.38;;;11.30;99.90;;;;;;5074539;28;20041;-77
2023/10/28 11:04:06;;;;;;;13.80;7.03;;;11.30;99.90;;;;;;5075241;28;20052;-77
2023/10/28 11:06:34;;;;;;;16.45;6.47;;;11.30;99.90;;;;;;5064998;28;20155;-78
2023/10/28 11:09:05;;;;;;;13.85;6.75;;;11.30;99.90;;;;;;5072607;28;20054;-76
2023/10/28 11:11:35;;;;;;;16.30;7.72;;;11.30;99.90;;;;;;5056609;28;20041;-76
2023/10/28 11:14:02;;;;;;;13.25;6.55;;;11.30;99.90;;;;;;5067586;28;20078;-76
2023/10/28 11:16:28;;;;;;;9.90;5.75;;;11.30;99.90;;;;;;5095639;28;20048;-77
2023/10/28 11:18:54;;;;;;;10.93;6.60;;;11.40;99.90;;;;;;5077173;28;20069;-77
2023/10/28 11:21:23;;;;;;;11.30;6.38;;;11.40;99.90;;;;;;5075222;28;20050;-78
2023/10/28 11:23:50;;;;;;;16.42;6.78;;;11.40;99.90;;;;;;5075753;28;20046;-79
2023/10/28 11:26:19;;;;;;;15.73;6.60;;;11.50;99.90;;;;;;5075451;28;20441;-77
2023/10/28 11:28:45;;;;;;;14.60;6.95;;;11.50;99.90;;;;;;5094714;28;20042;-79
2023/10/28 11:31:11;;;;;;;16.40;6.78;;;11.60;99.90;;;;;;5077028;28;20498;-79
2023/10/28 11:33:37;;;;;;;13.55;6.43;;;11.60;99.90;;;;;;5077762;28;20066;-79
2023/10/28 11:36:04;;;;;;;14.10;6.45;;;11.70;99.90;;;;;;5077541;28;20048;-79
2023/10/28 11:38:35;;;;;;;11.32;6.80;;;11.70;99.90;;;;;;5077101;28;20052;-79
2023/10/28 11:41:08;;;;;;;9.85;5.60;;;11.70;99.90;;;;;;5077643;28;20054;-79
2023/10/28 11:43:34;;;;;;;10.15;5.25;;;11.70;99.90;;;;;;5077321;28;20082;-78
2023/10/28 11:46:00;;;;;;;13.60;6.65;;;11.70;99.90;;;;;;5077540;28;20036;-78
2023/10/28 11:48:27;;;;;;;13.88;7.03;;;11.80;99.90;;;;;;5076243;28;20159;-79
2023/10/28 11:50:53;;;;;;;12.95;6.10;;;11.70;99.90;;;;;;5077187;28;20078;-79
2023/10/28 11:53:27;;;;;;;13.20;6.25;;;11.70;99.90;;;;;;5095469;28;20044;-78
2023/10/28 11:55:54;;;;;;;13.02;6.45;;;11.70;99.90;;;;;;5056906;28;20111;-78
2023/10/28 11:58:22;;;;;;;13.02;5.82;;;11.60;99.90;;;;;;5057172;28;20048;-78
2023/10/28 12:00:52;;;;;;;11.27;6.47;;;11.60;99.90;;;;;;5056897;28;20101;-78
2023/10/28 12:03:19;;;;;;;13.25;6.18;;;11.60;99.90;;;;;;5074802;28;20484;-78
2023/10/28 12:05:45;;;;;;;14.57;6.68;;;11.60;99.90;;;;;;5056959;28;20480;-78
2023/10/28 12:08:11;;;;;;;14.27;5.97;;;11.60;99.90;;;;;;5056975;28;20186;-78
2023/10/28 12:10:44;;;;;;;12.38;6.30;;;11.60;99.90;;;;;;5078220;28;20423;-78
2023/10/28 12:13:11;;;;;;;11.02;6.30;;;11.60;99.90;;;;;;5076759;28;20510;-78
2023/10/28 12:15:38;;;;;;;13.82;6.35;;;11.60;99.90;;;;;;5076816;28;20062;-78
2023/10/28 12:18:03;;;;;;;16.15;7.97;;;11.70;99.90;;;;;;5083687;28;20559;-78
2023/10/28 12:20:29;;;;;;;15.70;6.88;;;11.70;99.90;;;;;;5093345;28;20044;-78
2023/10/28 12:22:56;;;;;;;12.85;7.50;;;11.70;99.90;;;;;;5093436;28;20398;-79
2023/10/28 12:25:23;;;;;;;14.65;6.72;;;11.70;99.90;;;;;;5094653;28;20044;-79
2023/10/28 12:27:50;;;;;;;15.88;7.50;;;11.70;99.90;;;;;;5094749;28;20113;-78
2023/10/28 12:30:16;;;;;;;14.52;6.40;;;11.70;99.90;;;;;;5094442;28;20048;-78
2023/10/28 12:32:42;;;;;;;15.75;6.07;;;11.70;99.90;;;;;;5092992;28;20036;-79